sensor_id;sensor_type;location;lat;lon;timestamp;P1;durP1;ratioP1;P2;durP2;ratioP2
44204;SDS011;30163;42.698;23.344;2023-03-01T00:01:11;11.35;;;6.22;;
44204;SDS011;30163;42.698;23.344;2023-03-01T00:03:40;11.85;;;6.05;;
44204;SDS011;30163;42.698;23.344;2023-03-01T00:06:06;15.30;;;6.57;;
44204;SDS011;30163;42.698;23.344;2023-03-01T00:08:32;11.38;;;6.63;;
44204;SDS011;30163;42.698;23.344;2023-03-01T00:11:41;9.60;;;5.38;;
44204;SDS011;30163;42.698;23.344;2023-03-01T00:13:52;9.52;;;5.43;;
44204;SDS011;30163;42.698;23.344;2023-03-01T00:16:26;10.38;;;5.95;;
44204;SDS011;30163;42.698;23.344;2023-03-01T00:18:53;9.50;;;5.40;;
44204;SDS011;30163;42.698;23.344;2023-03-01T00:21:20;8.80;;;5.00;;
44204;SDS011;30163;42.698;23.344;2023-03-01T00:23:46;8.02;;;5.15;;
44204;SDS011;30163;42.698;23.344;2023-03-01T00:26:14;8.27;;;5.05;;
44204;SDS011;30163;42.698;23.344;2023-03-01T00:28:41;9.55;;;5.43;;
44204;SDS011;30163;42.698;23.344;2023-03-01T00:31:08;8.63;;;4.82;;
44204;SDS011;30163;42.698;23.344;2023-03-01T00:33:35;8.80;;;4.97;;
44204;SDS011;30163;42.698;23.344;2023-03-01T00:36:00;8.95;;;4.72;;
44204;SDS011;30163;42.698;23.344;2023-03-01T00:38:26;8.95;;;4.88;;
44204;SDS011;30163;42.698;23.344;2023-03-01T00:40:51;8.93;;;5.15;;
44204;SDS011;30163;42.698;23.344;2023-03-01T00:43:17;12.30;;;6.13;;
44204;SDS011;30163;42.698;23.344;2023-03-01T00:45:42;8.63;;;4.90;;
44204;SDS011;30163;42.698;23.344;2023-03-01T00:48:07;9.98;;;4.72;;
44204;SDS011;30163;42.698;23.344;2023-03-01T00:50:33;8.10;;;4.70;;
44204;SDS011;30163;42.698;23.344;2023-03-01T00:52:58;9.73;;;5.53;;
44204;SDS011;30163;42.698;23.344;2023-03-01T00:55:24;7.68;;;4.50;;
44204;SDS011;30163;42.698;23.344;2023-03-01T00:57:50;9.68;;;4.97;;
44204;SDS011;30163;42.698;23.344;2023-03-01T01:00:15;7.18;;;4.32;;
44204;SDS011;30163;42.698;23.344;2023-03-01T01:02:41;9.90;;;5.05;;
44204;SDS011;30163;42.698;23.344;2023-03-01T01:05:07;8.38;;;5.03;;
44204;SDS011;30163;42.698;23.344;2023-03-01T01:07:32;6.93;;;4.47;;
44204;SDS011;30163;42.698;23.344;2023-03-01T01:09:58;7.60;;;4.72;;
44204;SDS011;30163;42.698;23.344;2023-03-01T01:12:23;6.13;;;3.85;;
44204;SDS011;30163;42.698;23.344;2023-03-01T01:14:49;5.72;;;3.83;;
44204;SDS011;30163;42.698;23.344;2023-03-01T01:17:14;8.75;;;4.50;;
44204;SDS011;30163;42.698;23.344;2023-03-01T01:19:39;6.03;;;4.18;;
44204;SDS011;30163;42.698;23.344;2023-03-01T01:22:05;7.53;;;4.60;;
44204;SDS011;30163;42.698;23.344;2023-03-01T01:24:30;7.80;;;4.53;;
44204;SDS011;30163;42.698;23.344;2023-03-01T01:26:55;8.55;;;5.32;;
44204;SDS011;30163;42.698;23.344;2023-03-01T01:29:21;6.93;;;4.40;;
44204;SDS011;30163;42.698;23.344;2023-03-01T01:31:47;8.32;;;4.50;;
44204;SDS011;30163;42.698;23.344;2023-03-01T01:34:16;7.22;;;4.72;;
44204;SDS011;30163;42.698;23.344;2023-03-01T01:36:43;7.25;;;5.05;;
44204;SDS011;30163;42.698;23.344;2023-03-01T01:39:09;7.50;;;4.30;;
44204;SDS011;30163;42.698;23.344;2023-03-01T01:41:38;6.80;;;4.63;;
44204;SDS011;30163;42.698;23.344;2023-03-01T01:46:56;8.02;;;4.25;;
44204;SDS011;30163;42.698;23.344;2023-03-01T01:49:33;7.75;;;4.38;;
44204;SDS011;30163;42.698;23.344;2023-03-01T01:52:04;7.18;;;4.32;;
44204;SDS011;30163;42.698;23.344;2023-03-01T01:54:46;8.10;;;5.07;;
44204;SDS011;30163;42.698;23.344;2023-03-01T01:57:14;5.43;;;3.75;;
44204;SDS011;30163;42.698;23.344;2023-03-01T01:59:43;4.75;;;3.95;;
44204;SDS011;30163;42.698;23.344;2023-03-01T02:02:11;6.90;;;3.78;;
44204;SDS011;30163;42.698;23.344;2023-03-01T02:04:36;5.22;;;3.83;;
44204;SDS011;30163;42.698;23.344;2023-03-01T02:07:21;4.68;;;3.55;;
44204;SDS011;30163;42.698;23.344;2023-03-01T02:09:48;7.97;;;3.92;;
44204;SDS011;30163;42.698;23.344;2023-03-01T02:12:15;3.60;;;3.15;;
44204;SDS011;30163;42.698;23.344;2023-03-01T02:14:42;4.50;;;3.38;;
44204;SDS011;30163;42.698;23.344;2023-03-01T02:17:07;3.85;;;3.10;;
44204;SDS011;30163;42.698;23.344;2023-03-01T02:22:17;4.38;;;3.03;;
44204;SDS011;30163;42.698;23.344;2023-03-01T02:27:30;5.47;;;3.13;;
44204;SDS011;30163;42.698;23.344;2023-03-01T02:30:06;4.30;;;2.80;;
44204;SDS011;30163;42.698;23.344;2023-03-01T02:32:32;4.45;;;3.45;;
44204;SDS011;30163;42.698;23.344;2023-03-01T02:34:58;4.88;;;3.88;;
44204;SDS011;30163;42.698;23.344;2023-03-01T02:37:24;7.38;;;4.60;;
44204;SDS011;30163;42.698;23.344;2023-03-01T02:39:53;5.75;;;3.70;;
44204;SDS011;30163;42.698;23.344;2023-03-01T02:42:23;5.63;;;4.10;;
44204;SDS011;30163;42.698;23.344;2023-03-01T02:44:52;5.45;;;3.97;;
44204;SDS011;30163;42.698;23.344;2023-03-01T02:47:18;6.07;;;3.80;;
44204;SDS011;30163;42.698;23.344;2023-03-01T02:49:44;6.30;;;4.50;;
44204;SDS011;30163;42.698;23.344;2023-03-01T02:55:16;6.38;;;4.03;;
44204;SDS011;30163;42.698;23.344;2023-03-01T02:57:43;6.40;;;3.65;;
44204;SDS011;30163;42.698;23.344;2023-03-01T03:00:13;3.88;;;2.78;;
44204;SDS011;30163;42.698;23.344;2023-03-01T03:02:47;7.38;;;3.85;;
44204;SDS011;30163;42.698;23.344;2023-03-01T03:05:21;5.55;;;3.53;;
44204;SDS011;30163;42.698;23.344;2023-03-01T03:07:48;4.80;;;3.53;;
44204;SDS011;30163;42.698;23.344;2023-03-01T03:10:16;6.03;;;3.67;;
44204;SDS011;30163;42.698;23.344;2023-03-01T03:12:44;6.15;;;3.95;;
44204;SDS011;30163;42.698;23.344;2023-03-01T03:15:14;11.40;;;3.92;;
44204;SDS011;30163;42.698;23.344;2023-03-01T03:17:40;5.82;;;4.15;;
44204;SDS011;30163;42.698;23.344;2023-03-01T03:20:08;7.53;;;3.92;;
44204;SDS011;30163;42.698;23.344;2023-03-01T03:22:37;7.82;;;4.78;;
44204;SDS011;30163;42.698;23.344;2023-03-01T03:25:06;9.63;;;4.68;;
44204;SDS011;30163;42.698;23.344;2023-03-01T03:27:35;7.22;;;4.80;;
44204;SDS011;30163;42.698;23.344;2023-03-01T03:30:02;5.93;;;4.25;;
44204;SDS011;30163;42.698;23.344;2023-03-01T03:32:29;7.05;;;4.43;;
44204;SDS011;30163;42.698;23.344;2023-03-01T03:34:55;6.50;;;4.50;;
44204;SDS011;30163;42.698;23.344;2023-03-01T03:37:20;5.95;;;3.92;;
44204;SDS011;30163;42.698;23.344;2023-03-01T03:40:04;7.13;;;4.40;;
44204;SDS011;30163;42.698;23.344;2023-03-01T03:42:40;7.82;;;4.65;;
44204;SDS011;30163;42.698;23.344;2023-03-01T03:45:06;9.02;;;4.60;;
44204;SDS011;30163;42.698;23.344;2023-03-01T03:47:31;8.27;;;5.13;;
44204;SDS011;30163;42.698;23.344;2023-03-01T03:49:57;9.30;;;4.85;;
44204;SDS011;30163;42.698;23.344;2023-03-01T03:52:22;11.20;;;5.90;;
44204;SDS011;30163;42.698;23.344;2023-03-01T03:54:47;11.57;;;5.97;;
44204;SDS011;30163;42.698;23.344;2023-03-01T03:57:13;8.38;;;5.55;;
44204;SDS011;30163;42.698;23.344;2023-03-01T03:59:38;8.38;;;5.38;;
44204;SDS011;30163;42.698;23.344;2023-03-01T04:02:04;9.43;;;6.25;;
44204;SDS011;30163;42.698;23.344;2023-03-01T04:04:29;9.82;;;5.72;;
44204;SDS011;30163;42.698;23.344;2023-03-01T04:06:54;11.05;;;5.53;;
44204;SDS011;30163;42.698;23.344;2023-03-01T04:09:20;9.65;;;4.88;;
44204;SDS011;30163;42.698;23.344;2023-03-01T04:11:45;10.10;;;5.10;;
44204;SDS011;30163;42.698;23.344;2023-03-01T04:14:10;11.10;;;5.75;;
44204;SDS011;30163;42.698;23.344;2023-03-01T04:16:36;7.00;;;4.78;;
44204;SDS011;30163;42.698;23.344;2023-03-01T04:19:01;9.32;;;5.72;;
44204;SDS011;30163;42.698;23.344;2023-03-01T04:21:27;8.00;;;4.85;;
44204;SDS011;30163;42.698;23.344;2023-03-01T04:23:52;7.35;;;5.13;;
44204;SDS011;30163;42.698;23.344;2023-03-01T04:26:18;8.50;;;5.30;;
44204;SDS011;30163;42.698;23.344;2023-03-01T04:28:44;8.15;;;4.32;;
44204;SDS011;30163;42.698;23.344;2023-03-01T04:31:15;7.95;;;4.47;;
44204;SDS011;30163;42.698;23.344;2023-03-01T04:33:44;7.28;;;4.82;;
44204;SDS011;30163;42.698;23.344;2023-03-01T04:36:10;11.38;;;4.55;;
44204;SDS011;30163;42.698;23.344;2023-03-01T04:38:36;7.07;;;4.65;;
44204;SDS011;30163;42.698;23.344;2023-03-01T04:41:06;8.93;;;5.50;;
44204;SDS011;30163;42.698;23.344;2023-03-01T04:43:32;11.95;;;4.68;;
44204;SDS011;30163;42.698;23.344;2023-03-01T04:46:18;15.75;;;5.53;;
44204;SDS011;30163;42.698;23.344;2023-03-01T04:48:44;9.93;;;5.35;;
44204;SDS011;30163;42.698;23.344;2023-03-01T04:51:11;8.68;;;4.70;;
44204;SDS011;30163;42.698;23.344;2023-03-01T04:53:38;10.32;;;5.90;;
44204;SDS011;30163;42.698;23.344;2023-03-01T04:56:04;13.18;;;5.97;;
44204;SDS011;30163;42.698;23.344;2023-03-01T04:58:30;12.25;;;6.38;;
44204;SDS011;30163;42.698;23.344;2023-03-01T05:00:55;15.70;;;7.00;;
44204;SDS011;30163;42.698;23.344;2023-03-01T05:03:21;12.55;;;6.75;;
44204;SDS011;30163;42.698;23.344;2023-03-01T05:05:47;15.98;;;7.07;;
44204;SDS011;30163;42.698;23.344;2023-03-01T05:08:14;13.55;;;6.35;;
44204;SDS011;30163;42.698;23.344;2023-03-01T05:10:49;12.15;;;5.60;;
44204;SDS011;30163;42.698;23.344;2023-03-01T05:13:16;11.95;;;7.28;;
44204;SDS011;30163;42.698;23.344;2023-03-01T05:15:55;12.98;;;6.78;;
44204;SDS011;30163;42.698;23.344;2023-03-01T05:18:22;15.88;;;7.72;;
44204;SDS011;30163;42.698;23.344;2023-03-01T05:20:50;10.65;;;6.43;;
44204;SDS011;30163;42.698;23.344;2023-03-01T05:23:17;14.05;;;7.65;;
44204;SDS011;30163;42.698;23.344;2023-03-01T05:25:43;19.50;;;7.55;;
44204;SDS011;30163;42.698;23.344;2023-03-01T05:28:12;12.02;;;7.78;;
44204;SDS011;30163;42.698;23.344;2023-03-01T05:30:38;11.95;;;6.82;;
44204;SDS011;30163;42.698;23.344;2023-03-01T05:33:04;10.80;;;7.00;;
44204;SDS011;30163;42.698;23.344;2023-03-01T05:35:32;11.30;;;6.57;;
44204;SDS011;30163;42.698;23.344;2023-03-01T05:37:57;11.40;;;6.82;;
44204;SDS011;30163;42.698;23.344;2023-03-01T05:40:23;14.75;;;7.03;;
44204;SDS011;30163;42.698;23.344;2023-03-01T05:42:53;13.00;;;6.80;;
44204;SDS011;30163;42.698;23.344;2023-03-01T05:45:19;12.00;;;6.63;;
44204;SDS011;30163;42.698;23.344;2023-03-01T05:47:46;14.10;;;6.75;;
44204;SDS011;30163;42.698;23.344;2023-03-01T05:50:16;15.10;;;6.15;;
44204;SDS011;30163;42.698;23.344;2023-03-01T05:52:56;24.00;;;6.57;;
44204;SDS011;30163;42.698;23.344;2023-03-01T05:55:25;18.17;;;6.15;;
44204;SDS011;30163;42.698;23.344;2023-03-01T05:57:50;11.77;;;6.70;;
44204;SDS011;30163;42.698;23.344;2023-03-01T06:00:17;19.77;;;7.63;;
44204;SDS011;30163;42.698;23.344;2023-03-01T06:02:44;12.50;;;6.88;;
44204;SDS011;30163;42.698;23.344;2023-03-01T06:05:10;13.20;;;6.75;;
44204;SDS011;30163;42.698;23.344;2023-03-01T06:07:36;15.80;;;6.47;;
44204;SDS011;30163;42.698;23.344;2023-03-01T06:10:03;13.93;;;6.95;;
44204;SDS011;30163;42.698;23.344;2023-03-01T06:12:32;22.38;;;6.88;;
44204;SDS011;30163;42.698;23.344;2023-03-01T06:14:58;16.55;;;6.80;;
44204;SDS011;30163;42.698;23.344;2023-03-01T06:17:24;12.95;;;6.00;;
44204;SDS011;30163;42.698;23.344;2023-03-01T06:19:49;13.90;;;5.90;;
44204;SDS011;30163;42.698;23.344;2023-03-01T06:22:15;16.05;;;7.13;;
44204;SDS011;30163;42.698;23.344;2023-03-01T06:24:40;13.50;;;6.28;;
44204;SDS011;30163;42.698;23.344;2023-03-01T06:27:06;12.13;;;6.30;;
44204;SDS011;30163;42.698;23.344;2023-03-01T06:29:31;13.48;;;5.75;;
44204;SDS011;30163;42.698;23.344;2023-03-01T06:31:56;16.75;;;6.47;;
44204;SDS011;30163;42.698;23.344;2023-03-01T06:34:22;8.45;;;4.43;;
44204;SDS011;30163;42.698;23.344;2023-03-01T06:36:50;10.85;;;5.25;;
44204;SDS011;30163;42.698;23.344;2023-03-01T06:39:16;9.48;;;4.80;;
44204;SDS011;30163;42.698;23.344;2023-03-01T06:41:42;12.65;;;5.80;;
44204;SDS011;30163;42.698;23.344;2023-03-01T06:44:08;8.95;;;5.15;;
44204;SDS011;30163;42.698;23.344;2023-03-01T06:46:33;10.30;;;5.25;;
44204;SDS011;30163;42.698;23.344;2023-03-01T06:48:59;8.45;;;5.10;;
44204;SDS011;30163;42.698;23.344;2023-03-01T06:51:25;8.13;;;5.10;;
44204;SDS011;30163;42.698;23.344;2023-03-01T06:53:50;9.80;;;5.18;;
44204;SDS011;30163;42.698;23.344;2023-03-01T06:56:16;11.85;;;5.65;;
44204;SDS011;30163;42.698;23.344;2023-03-01T06:58:41;14.73;;;6.18;;
44204;SDS011;30163;42.698;23.344;2023-03-01T07:01:07;12.30;;;5.70;;
44204;SDS011;30163;42.698;23.344;2023-03-01T07:03:33;13.13;;;6.30;;
44204;SDS011;30163;42.698;23.344;2023-03-01T07:05:58;21.02;;;6.95;;
44204;SDS011;30163;42.698;23.344;2023-03-01T07:08:23;16.50;;;7.50;;
44204;SDS011;30163;42.698;23.344;2023-03-01T07:10:54;15.90;;;6.45;;
44204;SDS011;30163;42.698;23.344;2023-03-01T07:13:20;10.27;;;5.47;;
44204;SDS011;30163;42.698;23.344;2023-03-01T07:15:45;11.93;;;6.45;;
44204;SDS011;30163;42.698;23.344;2023-03-01T07:18:11;12.55;;;5.40;;
44204;SDS011;30163;42.698;23.344;2023-03-01T07:20:36;12.20;;;6.03;;
44204;SDS011;30163;42.698;23.344;2023-03-01T07:23:01;8.63;;;5.18;;
44204;SDS011;30163;42.698;23.344;2023-03-01T07:25:27;11.32;;;5.85;;
44204;SDS011;30163;42.698;23.344;2023-03-01T07:27:52;17.13;;;5.50;;
44204;SDS011;30163;42.698;23.344;2023-03-01T07:30:18;10.00;;;4.85;;
44204;SDS011;30163;42.698;23.344;2023-03-01T07:32:44;22.33;;;4.88;;
44204;SDS011;30163;42.698;23.344;2023-03-01T07:35:10;11.52;;;5.38;;
44204;SDS011;30163;42.698;23.344;2023-03-01T07:37:36;11.48;;;5.63;;
44204;SDS011;30163;42.698;23.344;2023-03-01T07:40:01;10.15;;;5.20;;
44204;SDS011;30163;42.698;23.344;2023-03-01T07:42:27;12.85;;;5.68;;
44204;SDS011;30163;42.698;23.344;2023-03-01T07:44:52;15.07;;;5.32;;
44204;SDS011;30163;42.698;23.344;2023-03-01T07:47:17;12.10;;;6.00;;
44204;SDS011;30163;42.698;23.344;2023-03-01T07:49:43;17.25;;;5.95;;
44204;SDS011;30163;42.698;23.344;2023-03-01T07:52:11;10.40;;;4.78;;
44204;SDS011;30163;42.698;23.344;2023-03-01T07:54:38;9.05;;;4.20;;
44204;SDS011;30163;42.698;23.344;2023-03-01T07:57:03;10.65;;;4.68;;
44204;SDS011;30163;42.698;23.344;2023-03-01T07:59:29;15.60;;;5.35;;
44204;SDS011;30163;42.698;23.344;2023-03-01T08:01:57;20.55;;;4.80;;
44204;SDS011;30163;42.698;23.344;2023-03-01T08:04:23;17.55;;;4.50;;
44204;SDS011;30163;42.698;23.344;2023-03-01T08:06:50;12.80;;;4.47;;
44204;SDS011;30163;42.698;23.344;2023-03-01T08:09:16;16.30;;;5.13;;
44204;SDS011;30163;42.698;23.344;2023-03-01T08:11:41;9.63;;;3.92;;
44204;SDS011;30163;42.698;23.344;2023-03-01T08:14:07;10.55;;;4.80;;
44204;SDS011;30163;42.698;23.344;2023-03-01T08:16:33;9.80;;;4.38;;
44204;SDS011;30163;42.698;23.344;2023-03-01T08:19:10;12.98;;;4.30;;
44204;SDS011;30163;42.698;23.344;2023-03-01T08:21:36;14.38;;;3.90;;
44204;SDS011;30163;42.698;23.344;2023-03-01T08:24:03;8.95;;;3.92;;
44204;SDS011;30163;42.698;23.344;2023-03-01T08:26:29;12.07;;;4.43;;
44204;SDS011;30163;42.698;23.344;2023-03-01T08:28:55;6.38;;;3.50;;
44204;SDS011;30163;42.698;23.344;2023-03-01T08:31:28;12.00;;;5.95;;
44204;SDS011;30163;42.698;23.344;2023-03-01T08:33:56;8.80;;;3.88;;
44204;SDS011;30163;42.698;23.344;2023-03-01T08:36:23;13.55;;;4.05;;
44204;SDS011;30163;42.698;23.344;2023-03-01T08:38:50;7.97;;;3.88;;
44204;SDS011;30163;42.698;23.344;2023-03-01T08:41:16;4.32;;;3.35;;
44204;SDS011;30163;42.698;23.344;2023-03-01T08:43:41;11.45;;;4.80;;
44204;SDS011;30163;42.698;23.344;2023-03-01T08:46:07;6.35;;;3.72;;
44204;SDS011;30163;42.698;23.344;2023-03-01T08:48:32;8.27;;;3.97;;
44204;SDS011;30163;42.698;23.344;2023-03-01T08:51:06;9.30;;;4.05;;
44204;SDS011;30163;42.698;23.344;2023-03-01T08:53:33;6.78;;;4.45;;
44204;SDS011;30163;42.698;23.344;2023-03-01T08:56:02;8.85;;;4.63;;
44204;SDS011;30163;42.698;23.344;2023-03-01T08:58:28;10.52;;;3.92;;
44204;SDS011;30163;42.698;23.344;2023-03-01T09:00:54;20.27;;;4.88;;
44204;SDS011;30163;42.698;23.344;2023-03-01T09:03:20;11.10;;;3.70;;
44204;SDS011;30163;42.698;23.344;2023-03-01T09:05:46;4.22;;;3.38;;
44204;SDS011;30163;42.698;23.344;2023-03-01T09:08:11;5.47;;;3.95;;
44204;SDS011;30163;42.698;23.344;2023-03-01T09:10:37;15.10;;;3.55;;
44204;SDS011;30163;42.698;23.344;2023-03-01T09:13:04;4.25;;;2.78;;
44204;SDS011;30163;42.698;23.344;2023-03-01T09:15:29;4.85;;;3.50;;
44204;SDS011;30163;42.698;23.344;2023-03-01T09:17:55;12.68;;;4.95;;
44204;SDS011;30163;42.698;23.344;2023-03-01T09:20:20;7.80;;;4.00;;
44204;SDS011;30163;42.698;23.344;2023-03-01T09:22:46;6.40;;;3.13;;
44204;SDS011;30163;42.698;23.344;2023-03-01T09:25:11;6.75;;;3.75;;
44204;SDS011;30163;42.698;23.344;2023-03-01T09:27:38;3.90;;;3.15;;
44204;SDS011;30163;42.698;23.344;2023-03-01T09:30:03;4.97;;;3.60;;
44204;SDS011;30163;42.698;23.344;2023-03-01T09:32:30;6.32;;;3.88;;
44204;SDS011;30163;42.698;23.344;2023-03-01T09:34:56;11.63;;;4.35;;
44204;SDS011;30163;42.698;23.344;2023-03-01T09:37:30;7.88;;;3.03;;
44204;SDS011;30163;42.698;23.344;2023-03-01T09:39:57;6.93;;;2.67;;
44204;SDS011;30163;42.698;23.344;2023-03-01T09:42:22;5.82;;;3.70;;
44204;SDS011;30163;42.698;23.344;2023-03-01T09:44:49;11.77;;;3.35;;
44204;SDS011;30163;42.698;23.344;2023-03-01T09:47:17;6.68;;;3.50;;
44204;SDS011;30163;42.698;23.344;2023-03-01T09:49:47;5.55;;;3.30;;
44204;SDS011;30163;42.698;23.344;2023-03-01T09:52:24;11.23;;;3.80;;
44204;SDS011;30163;42.698;23.344;2023-03-01T09:54:56;8.50;;;3.95;;
44204;SDS011;30163;42.698;23.344;2023-03-01T09:57:26;6.88;;;3.20;;
44204;SDS011;30163;42.698;23.344;2023-03-01T10:02:49;4.03;;;2.78;;
44204;SDS011;30163;42.698;23.344;2023-03-01T10:10:37;10.80;;;3.45;;
44204;SDS011;30163;42.698;23.344;2023-03-01T10:13:09;8.90;;;4.40;;
44204;SDS011;30163;42.698;23.344;2023-03-01T10:15:43;10.10;;;3.60;;
44204;SDS011;30163;42.698;23.344;2023-03-01T10:18:11;6.63;;;4.20;;
44204;SDS011;30163;42.698;23.344;2023-03-01T10:20:43;11.05;;;3.97;;
44204;SDS011;30163;42.698;23.344;2023-03-01T10:23:12;4.75;;;3.15;;
44204;SDS011;30163;42.698;23.344;2023-03-01T10:25:57;11.10;;;3.75;;
44204;SDS011;30163;42.698;23.344;2023-03-01T10:28:44;6.00;;;3.22;;
44204;SDS011;30163;42.698;23.344;2023-03-01T10:31:18;7.60;;;3.53;;
44204;SDS011;30163;42.698;23.344;2023-03-01T10:33:47;6.65;;;3.40;;
44204;SDS011;30163;42.698;23.344;2023-03-01T10:36:16;7.13;;;3.67;;
44204;SDS011;30163;42.698;23.344;2023-03-01T10:38:52;11.05;;;4.85;;
44204;SDS011;30163;42.698;23.344;2023-03-01T10:41:22;18.73;;;4.68;;
44204;SDS011;30163;42.698;23.344;2023-03-01T10:43:56;5.45;;;3.00;;
44204;SDS011;30163;42.698;23.344;2023-03-01T10:46:33;9.43;;;3.05;;
44204;SDS011;30163;42.698;23.344;2023-03-01T10:51:45;6.35;;;1.88;;
44204;SDS011;30163;42.698;23.344;2023-03-01T10:54:24;4.18;;;2.10;;
44204;SDS011;30163;42.698;23.344;2023-03-01T10:56:56;2.92;;;2.13;;
44204;SDS011;30163;42.698;23.344;2023-03-01T11:04:55;8.67;;;2.20;;
44204;SDS011;30163;42.698;23.344;2023-03-01T11:07:48;4.32;;;2.33;;
44204;SDS011;30163;42.698;23.344;2023-03-01T11:10:35;4.82;;;2.65;;
44204;SDS011;30163;42.698;23.344;2023-03-01T11:16:01;9.05;;;2.53;;
44204;SDS011;30163;42.698;23.344;2023-03-01T11:18:29;6.65;;;3.10;;
44204;SDS011;30163;42.698;23.344;2023-03-01T11:20:55;3.97;;;2.30;;
44204;SDS011;30163;42.698;23.344;2023-03-01T11:23:22;3.20;;;2.08;;
44204;SDS011;30163;42.698;23.344;2023-03-01T11:25:58;18.35;;;2.35;;
44204;SDS011;30163;42.698;23.344;2023-03-01T11:28:29;4.13;;;2.10;;
44204;SDS011;30163;42.698;23.344;2023-03-01T11:31:05;7.80;;;2.20;;
44204;SDS011;30163;42.698;23.344;2023-03-01T11:38:48;5.45;;;2.17;;
44204;SDS011;30163;42.698;23.344;2023-03-01T11:41:16;12.90;;;3.58;;
44204;SDS011;30163;42.698;23.344;2023-03-01T12:10:35;8.18;;;2.50;;
44204;SDS011;30163;42.698;23.344;2023-03-01T12:13:22;8.50;;;2.95;;
44204;SDS011;30163;42.698;23.344;2023-03-01T12:18:49;7.35;;;2.58;;
44204;SDS011;30163;42.698;23.344;2023-03-01T12:26:53;19.83;;;3.50;;
44204;SDS011;30163;42.698;23.344;2023-03-01T12:34:45;8.27;;;3.28;;
44204;SDS011;30163;42.698;23.344;2023-03-01T12:40:11;26.40;;;4.88;;
44204;SDS011;30163;42.698;23.344;2023-03-01T12:42:51;36.58;;;5.38;;
44204;SDS011;30163;42.698;23.344;2023-03-01T12:51:06;6.90;;;3.35;;
44204;SDS011;30163;42.698;23.344;2023-03-01T12:53:36;5.63;;;3.50;;
44204;SDS011;30163;42.698;23.344;2023-03-01T12:56:05;7.70;;;3.88;;
44204;SDS011;30163;42.698;23.344;2023-03-01T12:58:33;9.88;;;4.10;;
44204;SDS011;30163;42.698;23.344;2023-03-01T13:06:20;13.43;;;3.40;;
44204;SDS011;30163;42.698;23.344;2023-03-01T13:08:52;10.60;;;4.50;;
44204;SDS011;30163;42.698;23.344;2023-03-01T13:11:25;5.22;;;3.10;;
44204;SDS011;30163;42.698;23.344;2023-03-01T13:13:50;4.57;;;2.70;;
44204;SDS011;30163;42.698;23.344;2023-03-01T13:16:21;7.05;;;3.08;;
44204;SDS011;30163;42.698;23.344;2023-03-01T13:22:01;7.13;;;4.05;;
44204;SDS011;30163;42.698;23.344;2023-03-01T13:25:00;9.23;;;4.50;;
44204;SDS011;30163;42.698;23.344;2023-03-01T13:27:27;10.25;;;4.68;;
44204;SDS011;30163;42.698;23.344;2023-03-01T13:29:58;15.02;;;4.43;;
44204;SDS011;30163;42.698;23.344;2023-03-01T13:32:32;10.50;;;4.20;;
44204;SDS011;30163;42.698;23.344;2023-03-01T13:35:02;13.90;;;3.75;;
44204;SDS011;30163;42.698;23.344;2023-03-01T13:37:37;19.70;;;4.15;;
44204;SDS011;30163;42.698;23.344;2023-03-01T13:40:04;13.15;;;4.57;;
44204;SDS011;30163;42.698;23.344;2023-03-01T13:42:49;12.45;;;4.10;;
44204;SDS011;30163;42.698;23.344;2023-03-01T13:45:16;8.98;;;4.38;;
44204;SDS011;30163;42.698;23.344;2023-03-01T13:47:45;7.95;;;4.03;;
44204;SDS011;30163;42.698;23.344;2023-03-01T13:50:24;9.60;;;4.38;;
44204;SDS011;30163;42.698;23.344;2023-03-01T13:53:02;15.55;;;4.32;;
44204;SDS011;30163;42.698;23.344;2023-03-01T13:55:33;10.15;;;4.25;;
44204;SDS011;30163;42.698;23.344;2023-03-01T13:58:01;9.10;;;3.47;;
44204;SDS011;30163;42.698;23.344;2023-03-01T14:00:39;8.77;;;4.10;;
44204;SDS011;30163;42.698;23.344;2023-03-01T14:03:10;12.05;;;4.70;;
44204;SDS011;30163;42.698;23.344;2023-03-01T14:08:33;16.45;;;5.30;;
44204;SDS011;30163;42.698;23.344;2023-03-01T14:16:35;12.50;;;5.38;;
44204;SDS011;30163;42.698;23.344;2023-03-01T14:21:36;20.05;;;6.13;;
44204;SDS011;30163;42.698;23.344;2023-03-01T14:24:01;11.50;;;4.40;;
44204;SDS011;30163;42.698;23.344;2023-03-01T14:26:27;13.32;;;4.80;;
44204;SDS011;30163;42.698;23.344;2023-03-01T14:28:53;10.60;;;4.32;;
44204;SDS011;30163;42.698;23.344;2023-03-01T14:31:34;13.57;;;4.88;;
44204;SDS011;30163;42.698;23.344;2023-03-01T14:34:02;18.52;;;4.85;;
44204;SDS011;30163;42.698;23.344;2023-03-01T14:36:29;15.75;;;5.18;;
44204;SDS011;30163;42.698;23.344;2023-03-01T14:38:55;11.57;;;4.72;;
44204;SDS011;30163;42.698;23.344;2023-03-01T14:41:29;8.93;;;4.88;;
44204;SDS011;30163;42.698;23.344;2023-03-01T14:43:58;14.25;;;4.72;;
44204;SDS011;30163;42.698;23.344;2023-03-01T14:46:30;20.83;;;4.72;;
44204;SDS011;30163;42.698;23.344;2023-03-01T14:49:05;11.32;;;5.15;;
44204;SDS011;30163;42.698;23.344;2023-03-01T14:51:36;17.17;;;5.40;;
44204;SDS011;30163;42.698;23.344;2023-03-01T14:54:03;12.82;;;4.68;;
44204;SDS011;30163;42.698;23.344;2023-03-01T14:56:37;16.92;;;5.43;;
44204;SDS011;30163;42.698;23.344;2023-03-01T14:59:08;22.95;;;7.07;;
44204;SDS011;30163;42.698;23.344;2023-03-01T15:01:34;11.40;;;6.10;;
44204;SDS011;30163;42.698;23.344;2023-03-01T15:03:59;14.07;;;5.88;;
44204;SDS011;30163;42.698;23.344;2023-03-01T15:06:26;25.70;;;8.02;;
44204;SDS011;30163;42.698;23.344;2023-03-01T15:08:52;12.50;;;6.15;;
44204;SDS011;30163;42.698;23.344;2023-03-01T15:11:27;17.52;;;7.38;;
44204;SDS011;30163;42.698;23.344;2023-03-01T15:13:57;15.75;;;6.47;;
44204;SDS011;30163;42.698;23.344;2023-03-01T15:16:27;16.15;;;6.45;;
44204;SDS011;30163;42.698;23.344;2023-03-01T15:18:55;21.00;;;6.22;;
44204;SDS011;30163;42.698;23.344;2023-03-01T15:21:24;18.77;;;6.50;;
44204;SDS011;30163;42.698;23.344;2023-03-01T15:23:56;16.33;;;6.47;;
44204;SDS011;30163;42.698;23.344;2023-03-01T15:26:31;16.48;;;6.40;;
44204;SDS011;30163;42.698;23.344;2023-03-01T15:28:59;15.65;;;6.88;;
44204;SDS011;30163;42.698;23.344;2023-03-01T15:31:29;16.08;;;6.07;;
44204;SDS011;30163;42.698;23.344;2023-03-01T15:36:51;14.23;;;6.85;;
44204;SDS011;30163;42.698;23.344;2023-03-01T15:42:02;18.20;;;6.88;;
44204;SDS011;30163;42.698;23.344;2023-03-01T15:44:30;20.45;;;6.75;;
44204;SDS011;30163;42.698;23.344;2023-03-01T15:46:58;14.38;;;6.18;;
44204;SDS011;30163;42.698;23.344;2023-03-01T15:49:30;18.45;;;7.95;;
44204;SDS011;30163;42.698;23.344;2023-03-01T15:52:01;24.95;;;7.60;;
44204;SDS011;30163;42.698;23.344;2023-03-01T15:54:26;25.45;;;6.55;;
44204;SDS011;30163;42.698;23.344;2023-03-01T15:56:52;22.08;;;7.40;;
44204;SDS011;30163;42.698;23.344;2023-03-01T15:59:17;20.38;;;8.05;;
44204;SDS011;30163;42.698;23.344;2023-03-01T16:01:43;18.02;;;6.65;;
44204;SDS011;30163;42.698;23.344;2023-03-01T16:04:10;18.20;;;7.72;;
44204;SDS011;30163;42.698;23.344;2023-03-01T16:06:41;24.35;;;9.68;;
44204;SDS011;30163;42.698;23.344;2023-03-01T16:09:06;15.82;;;8.13;;
44204;SDS011;30163;42.698;23.344;2023-03-01T16:11:32;20.98;;;8.93;;
44204;SDS011;30163;42.698;23.344;2023-03-01T16:13:59;19.55;;;8.90;;
44204;SDS011;30163;42.698;23.344;2023-03-01T16:16:24;20.38;;;7.70;;
44204;SDS011;30163;42.698;23.344;2023-03-01T16:18:50;21.17;;;8.25;;
44204;SDS011;30163;42.698;23.344;2023-03-01T16:21:20;26.23;;;9.48;;
44204;SDS011;30163;42.698;23.344;2023-03-01T16:23:49;19.30;;;8.77;;
44204;SDS011;30163;42.698;23.344;2023-03-01T16:26:16;22.50;;;8.95;;